Detalii statie TRANSAVIA GRUP [00001CF7]

Toti senzorii

Date Temperatura solului [C]Precipitatii [mm]Voltaj baterie [mV]HC Air temperature [C]HC Relative humidity [%]Punctul de roua [C]
medieminmaxsumaultimamedieminmaxmediemediemin
2018-12-09 16:00:00 2.7 2.6 2.8 0 7030 6.17 5.94 6.37 0.2 0
2018-12-09 17:00:00 2.7 2.6 2.8 0 7000 4.49 3.28 5.95 0 0 0
2018-12-09 18:00:00 2.7 2.7 2.8 0 6982 1.95 0.92 3.56 0 0 0
2018-12-09 19:00:00 2.7 2.6 2.8 0 6962 0.08 -0.25 0.56 0 0 0
2018-12-09 20:00:00 2.6 2.5 3 0 6932 -0.34 -0.99 0.45 0 0 0
2018-12-09 21:00:00 2.6 2.5 2.8 0 6922 0.12 -0.47 0.64 0 0 0
2018-12-09 22:00:00 2.5 2.5 2.7 0 6922 0.77 0.32 1.12 0 0 0
2018-12-09 23:00:00 2.5 2.5 2.6 0 6914 0.23 -0.01 0.6 0 0 0
2018-12-10 00:00:00 2.5 2.5 2.5 0 6914 0.27 0.19 0.43 0 0 0
2018-12-10 01:00:00 2.5 2.4 2.8 0 6894 0.18 0.05 0.28 0 0 0
2018-12-10 02:00:00 2.4 2.3 2.5 0 6894 0.07 -0.14 0.26 0 0 0
2018-12-10 03:00:00 2.3 2.3 2.5 0 6894 0.05 -0.15 0.19 0 0 0
2018-12-10 04:00:00 2.4 2.4 2.5 0 6894 1.1 0.39 2.01 0 0 0
2018-12-10 05:00:00 2.3 2.3 2.4 0 6884 2.39 1.39 3.33 0 0 0
2018-12-10 06:00:00 2.3 2.3 2.4 0 6884 3.33 2.86 3.64 0 0 0
2018-12-10 07:00:00 2.3 2.3 2.5 0 6884 2.72 2.36 3.57 0 0 0
2018-12-10 08:00:00 2.3 2.2 2.4 0 6884 2.73 2.11 3.55 0 0 0
2018-12-10 09:00:00 2.3 2.3 2.4 0 6884 3.94 3.64 4.1 0 0 0
2018-12-10 10:00:00 2.3 2.3 2.4 0 6894 4.28 4.14 4.41 0 0 0
2018-12-10 11:00:00 2.4 2.3 2.5 0 6894 4.6 4.44 4.77 0 0 0
2018-12-10 12:00:00 2.5 2.4 2.6 0 6914 4.99 4.84 5.28 0 0 0
2018-12-10 13:00:00 2.5 2.5 2.7 0 6932 5.46 5.31 5.57 0 0 0
2018-12-10 14:00:00 2.7 2.6 2.8 0 6932 5.69 5.52 5.99 0 0 0
2018-12-10 15:00:00 2.8 2.8 2.9 0 6962 5.85 5.35 6.25 0.13 0
2018-12-10 16:00:00 2.9 2.9 3.2 0 6904 5.35 5.23 5.45 0 0 0
2018-12-10 17:00:00 3 2.9 3.1 0 6874 4.88 4.72 5.18 0 0 0
2018-12-10 18:00:00 3.1 3 3.4 0 6864 4.62 4.45 4.8 0 0 0
2018-12-10 19:00:00 3.1 3.1 3.2 0 6854 4.36 4.17 4.51 0 0 0
2018-12-10 20:00:00 3.1 3 3.4 0 6854 4.14 4.12 4.17 0 0 0
2018-12-10 21:00:00 3.1 3.1 3.2 0 6844 3.93 3.64 4.13 0 0 0
2018-12-10 22:00:00 3.1 3.1 3.2 0 6844 3.55 3.42 3.62 0 0 0
2018-12-10 23:00:00 3.1 3.1 3.2 0.2 6834 2.91 2.61 3.35 0 0 0
2018-12-11 00:00:00 3.2 3.1 3.4 0.6 6826 2.69 2.52 2.88 0 0 0
2018-12-11 01:00:00 3.2 3.2 3.5 0.6 6826 2.31 2.04 2.55 0 0 0
2018-12-11 02:00:00 3.1 3.1 3.2 0 6816 2.05 1.99 2.11 0 0 0
2018-12-11 03:00:00 3.2 3.2 3.4 0.2 6816 1.93 1.82 2.01 0 0 0
2018-12-11 04:00:00 3.1 3.1 3.2 0 6806 1.66 1.48 1.79 0 0 0
2018-12-11 05:00:00 3.1 3.1 3.4 0 6806 1.46 1.29 1.61 0 0 0
2018-12-11 06:00:00 3.2 3.1 3.4 0.4 6806 1.35 1.24 1.45 0 0 0
2018-12-11 07:00:00 3.1 3.1 3.4 0 6806 1.31 1.15 1.42 0 0 0
2018-12-11 08:00:00 3.1 3.1 3.2 0.2 6796 1.02 0.74 1.21 0 0 0
2018-12-11 09:00:00 3.1 3 3.4 0 6796 0.51 0.3 0.8 0 0 0
2018-12-11 10:00:00 3.2 2.9 3.4 1 6796 0.67 0.62 0.8 0 0 0
2018-12-11 11:00:00 3 3 3.1 0.4 6826 0.88 0.8 1.05 0 0 0
2018-12-11 12:00:00 3 3 3.1 0 6864 1.22 1.14 1.31 0 0 0
2018-12-11 13:00:00 3 3 3.1 0 7000 1.78 1.33 2.1 0 0 0